FNBG METAR and TAF | Updated Today

FNBG METAR

Benguela Airport

Benguela Airport (FNBG) hasn't published a METAR.
We found the following current weather conditions for Docota from other sources.

Benguela Airport (FNBG) METAR

  • Weather conditions right now at FNBG:
  • Present conditions: Clear
  • Clouds: Clear sky
  • Cloud cover: 1%
  • Wind: 311 at 8kts
  • Temperature: 26.4 celsius
  • Feels like: 26.4 celsius
  • Pressure: 1013mb
  • Humidity: 60%


Useful to know...

FNBG TAF

Benguela Airport

TAF FNBG 282245Z 2900/2912 21005KT 9000 FEW015 TEMPO 2906/2910 31008KT SCT018
Observation time: 12:09 hr. ago
Need help? Read our tutorial on how to read TAFs or read the parsed version below.

Parsed version of TAF for Benguela Airport (FNBG)

  • From 29 May at 00:00 UTC, to day 29 of the month at 12:00 UTC
  • Clouds: A few at 457 meters
  • Visibility: 9000 meters
  • Wind: 210 degrees at 5
  • Expected to arise temporarily, from 29 May at 06:00 UTC, to day 29 of the month at 10:00 UTC
  • Clouds: Scattered at 549 meters
  • Wind: 310 degrees at 8